createdAt,value
2019-02-22T00:00:43.907Z,25.30
2019-02-22T00:03:12.766Z,26.70
2019-02-22T00:05:41.536Z,25.70
2019-02-22T00:08:10.406Z,25.43
2019-02-22T00:10:39.200Z,25.90
2019-02-22T00:13:07.995Z,25.62
2019-02-22T00:15:36.805Z,27.25
2019-02-22T00:18:05.600Z,24.47
2019-02-22T00:20:34.362Z,27.05
2019-02-22T00:23:03.050Z,27.73
2019-02-22T00:25:31.911Z,27.82
2019-02-22T00:28:00.982Z,26.73
2019-02-22T00:30:29.826Z,26.73
2019-02-22T00:32:58.719Z,26.50
2019-02-22T00:35:27.532Z,26.00
2019-02-22T00:37:56.314Z,27.10
2019-02-22T00:40:25.268Z,26.23
2019-02-22T00:42:54.260Z,25.23
2019-02-22T00:45:22.970Z,26.60
2019-02-22T00:47:51.746Z,27.05
2019-02-22T00:50:20.491Z,27.32
2019-02-22T00:52:49.376Z,27.98
2019-02-22T00:55:18.129Z,26.23
2019-02-22T00:57:46.948Z,26.68
2019-02-22T01:00:15.672Z,27.82
2019-02-22T01:02:44.410Z,24.40
2019-02-22T01:05:13.138Z,25.43
2019-02-22T01:07:41.923Z,26.05
2019-02-22T01:10:10.945Z,26.17
2019-02-22T01:12:39.803Z,25.70
2019-02-22T01:15:08.606Z,26.87
2019-02-22T01:17:37.430Z,25.20
2019-02-22T01:20:06.442Z,26.62
2019-02-22T01:22:35.249Z,28.25
2019-02-22T01:25:04.047Z,25.50
2019-02-22T01:27:32.881Z,25.80
2019-02-22T01:30:01.675Z,27.07
2019-02-22T01:32:30.570Z,27.95
2019-02-22T01:34:59.375Z,28.35
2019-02-22T01:37:28.111Z,27.17
2019-02-22T01:39:56.929Z,28.07
2019-02-22T01:42:25.718Z,28.55
2019-02-22T01:44:54.591Z,28.40
2019-02-22T01:47:23.459Z,28.85
2019-02-22T01:49:52.219Z,27.52
2019-02-22T01:52:20.903Z,27.42
2019-02-22T01:54:49.711Z,28.42
2019-02-22T01:57:18.480Z,28.30
2019-02-22T01:59:47.245Z,28.02
2019-02-22T02:02:16.033Z,28.57
2019-02-22T02:04:45.029Z,27.40
2019-02-22T02:07:13.810Z,27.52
2019-02-22T02:09:42.671Z,27.62
2019-02-22T02:12:11.385Z,28.32
2019-02-22T02:14:40.132Z,26.65
2019-02-22T02:17:08.971Z,28.30
2019-02-22T02:19:37.732Z,27.48
2019-02-22T02:22:06.617Z,28.90
2019-02-22T02:24:35.327Z,28.02
2019-02-22T02:27:04.133Z,29.25
2019-02-22T02:29:32.843Z,27.60
2019-02-22T02:32:01.754Z,27.30
2019-02-22T02:34:30.451Z,28.20
2019-02-22T02:36:59.145Z,27.98
2019-02-22T02:39:27.865Z,28.50
2019-02-22T02:41:56.589Z,27.70
2019-02-22T02:44:25.467Z,27.80
2019-02-22T02:46:54.346Z,28.25
2019-02-22T02:49:23.158Z,28.70
2019-02-22T02:51:51.937Z,27.58
2019-02-22T02:54:20.782Z,28.70
2019-02-22T02:56:49.661Z,28.02
2019-02-22T02:59:18.579Z,25.88
2019-02-22T03:01:47.303Z,27.90
2019-02-22T03:04:16.030Z,28.17
2019-02-22T03:06:55.934Z,27.60
2019-02-22T03:09:24.669Z,28.20
2019-02-22T03:11:53.567Z,26.52
2019-02-22T03:14:22.398Z,27.98
2019-02-22T03:16:51.250Z,28.87
2019-02-22T03:19:19.963Z,26.87
2019-02-22T03:21:49.078Z,26.73
2019-02-22T03:24:17.760Z,25.05
2019-02-22T03:26:46.549Z,28.07
2019-02-22T03:29:15.306Z,26.80
2019-02-22T03:31:44.063Z,25.92
2019-02-22T03:34:12.912Z,24.98
2019-02-22T03:36:41.767Z,27.15
2019-02-22T03:39:10.556Z,26.33
2019-02-22T03:41:39.256Z,24.85
2019-02-22T03:44:07.965Z,25.50
2019-02-22T03:46:36.722Z,26.55
2019-02-22T03:49:05.464Z,26.17
2019-02-22T03:51:34.320Z,26.33
2019-02-22T03:54:04.118Z,27.70
2019-02-22T03:56:32.872Z,25.12
2019-02-22T03:59:01.615Z,24.25
2019-02-22T04:01:30.339Z,25.52
2019-02-22T04:03:59.040Z,24.43
2019-02-22T04:06:27.871Z,24.65
2019-02-22T04:08:56.708Z,24.63
2019-02-22T04:11:25.501Z,25.95
2019-02-22T04:13:54.319Z,23.57
2019-02-22T04:16:23.103Z,24.50
2019-02-22T04:18:51.798Z,23.85
2019-02-22T04:21:20.587Z,23.87
2019-02-22T04:23:49.337Z,22.80
2019-02-22T04:26:18.204Z,23.47
2019-02-22T04:28:46.933Z,24.07
2019-02-22T04:31:15.701Z,22.77
2019-02-22T04:33:44.426Z,23.07
2019-02-22T04:36:13.118Z,20.68
2019-02-22T04:38:44.691Z,22.07
2019-02-22T04:41:13.465Z,21.30
2019-02-22T04:43:42.340Z,21.85
2019-02-22T04:46:11.129Z,21.52
2019-02-22T04:48:39.946Z,20.85
2019-02-22T04:51:08.791Z,21.57
2019-02-22T04:53:37.693Z,21.90
2019-02-22T04:56:06.398Z,21.37
2019-02-22T04:58:35.151Z,21.40
2019-02-22T05:01:03.919Z,19.57
2019-02-22T05:03:32.669Z,19.70
2019-02-22T05:06:01.406Z,21.15
2019-02-22T05:08:30.200Z,21.40
2019-02-22T05:10:58.959Z,20.10
2019-02-22T05:13:27.788Z,20.72
2019-02-22T05:15:56.574Z,21.50
2019-02-22T05:18:25.446Z,21.27
2019-02-22T05:20:54.217Z,20.55
2019-02-22T05:23:22.922Z,19.77
2019-02-22T05:25:51.761Z,20.52
2019-02-22T05:28:20.496Z,20.50
2019-02-22T05:30:49.253Z,21.00
2019-02-22T05:33:17.983Z,20.43
2019-02-22T05:35:46.777Z,20.85
2019-02-22T05:38:15.642Z,19.77
2019-02-22T05:40:44.362Z,19.75
2019-02-22T05:43:13.109Z,19.80
2019-02-22T05:45:41.979Z,19.82
2019-02-22T05:48:10.713Z,20.48
2019-02-22T05:50:39.396Z,20.75
2019-02-22T05:53:08.203Z,20.32
2019-02-22T05:55:36.957Z,21.05
2019-02-22T05:58:05.774Z,21.00
2019-02-22T06:00:34.503Z,20.82
2019-02-22T06:03:03.249Z,21.30
2019-02-22T06:05:32.021Z,20.77
2019-02-22T06:08:00.725Z,20.15
2019-02-22T06:10:29.497Z,21.07
2019-02-22T06:12:58.351Z,22.02
2019-02-22T06:15:27.059Z,22.52
2019-02-22T06:17:55.878Z,23.95
2019-02-22T06:20:24.865Z,23.60
2019-02-22T06:22:53.876Z,24.32
2019-02-22T06:25:22.746Z,24.75
2019-02-22T06:27:51.537Z,25.85
2019-02-22T06:30:20.339Z,26.25
2019-02-22T06:32:49.174Z,26.45
2019-02-22T06:35:17.909Z,26.85
2019-02-22T06:37:46.871Z,27.20
2019-02-22T06:40:15.732Z,26.62
2019-02-22T06:42:46.057Z,26.73
2019-02-22T06:45:15.192Z,28.87
2019-02-22T06:47:44.033Z,26.80
2019-02-22T06:50:12.929Z,27.67
2019-02-22T06:52:41.766Z,26.12
2019-02-22T06:55:10.593Z,26.70
2019-02-22T06:57:39.377Z,28.60
2019-02-22T07:00:09.428Z,28.10
2019-02-22T07:02:38.225Z,29.23
2019-02-22T07:05:07.149Z,27.98
2019-02-22T07:07:36.020Z,29.67
2019-02-22T07:10:05.390Z,29.48
2019-02-22T07:12:40.449Z,29.52
2019-02-22T07:15:09.260Z,28.77
2019-02-22T07:17:38.167Z,28.70
2019-02-22T07:20:08.882Z,29.48
2019-02-22T07:22:37.731Z,30.27
2019-02-22T07:25:07.609Z,30.55
2019-02-22T07:27:36.462Z,30.70
2019-02-22T07:30:05.523Z,31.48
2019-02-22T07:32:34.363Z,31.25
2019-02-22T07:35:03.248Z,31.10
2019-02-22T07:37:39.901Z,31.30
2019-02-22T07:40:10.760Z,30.45
2019-02-22T07:42:39.802Z,28.52
2019-02-22T07:45:10.329Z,30.43
2019-02-22T07:47:39.108Z,32.58
2019-02-22T07:50:12.240Z,30.25
2019-02-22T07:52:41.257Z,30.10
2019-02-22T07:55:10.760Z,31.80
2019-02-22T07:57:40.276Z,33.23
2019-02-22T08:00:11.893Z,31.97
2019-02-22T08:02:40.646Z,35.52
2019-02-22T08:05:09.511Z,31.20
2019-02-22T08:07:38.247Z,31.27
2019-02-22T08:10:07.142Z,30.45
2019-02-22T08:12:36.095Z,31.17
2019-02-22T08:15:13.232Z,30.95
2019-02-22T08:17:42.069Z,29.30
2019-02-22T08:20:10.812Z,30.40
2019-02-22T08:22:39.627Z,31.85
2019-02-22T08:25:08.481Z,41.18
2019-02-22T08:27:39.983Z,29.30
2019-02-22T08:30:08.774Z,31.37
2019-02-22T08:32:37.812Z,31.93
2019-02-22T08:35:06.713Z,28.42
2019-02-22T08:37:35.617Z,29.12
2019-02-22T08:40:04.832Z,29.32
2019-02-22T08:42:33.640Z,28.40
2019-02-22T08:45:02.492Z,28.77
2019-02-22T08:47:31.263Z,30.32
2019-02-22T08:49:59.991Z,29.15
2019-02-22T08:52:28.721Z,27.55
2019-02-22T08:54:57.559Z,27.87
2019-02-22T08:57:26.279Z,28.83
2019-02-22T08:59:55.148Z,31.25
2019-02-22T09:02:24.129Z,29.23
2019-02-22T09:04:53.030Z,28.25
2019-02-22T09:07:21.779Z,26.77
2019-02-22T09:09:50.656Z,26.50
2019-02-22T09:12:19.525Z,28.17
2019-02-22T09:14:48.291Z,26.65
2019-02-22T09:17:17.113Z,26.17
2019-02-22T09:19:45.969Z,26.17
2019-02-22T09:22:22.278Z,27.58
2019-02-22T09:24:45.235Z,26.62
2019-02-22T09:27:14.072Z,25.80
2019-02-22T09:29:43.014Z,26.77
2019-02-22T09:32:11.790Z,26.05
2019-02-22T09:34:40.713Z,24.20
2019-02-22T09:37:09.451Z,25.90
2019-02-22T09:39:38.305Z,25.70
2019-02-22T09:42:07.075Z,24.90
2019-02-22T09:44:35.996Z,25.05
2019-02-22T09:47:05.147Z,25.80
2019-02-22T09:49:33.931Z,25.02
2019-02-22T09:52:02.886Z,24.65
2019-02-22T09:54:31.713Z,24.65
2019-02-22T09:57:02.033Z,25.30
2019-02-22T09:59:30.911Z,23.98
2019-02-22T10:01:59.738Z,24.70
2019-02-22T10:04:28.552Z,23.98
2019-02-22T10:06:57.308Z,24.70
2019-02-22T10:09:26.240Z,24.77
2019-02-22T10:11:55.061Z,25.20
2019-02-22T10:14:23.879Z,23.92
2019-02-22T10:16:52.681Z,23.67
2019-02-22T10:19:21.567Z,23.18
2019-02-22T10:21:50.415Z,23.25
2019-02-22T10:24:19.323Z,22.48
2019-02-22T10:26:48.095Z,23.22
2019-02-22T10:29:17.050Z,22.27
2019-02-22T10:31:46.006Z,22.85
2019-02-22T10:34:14.881Z,22.42
2019-02-22T10:36:45.527Z,22.58
2019-02-22T10:39:14.211Z,22.62
2019-02-22T10:41:43.009Z,22.65
2019-02-22T10:44:17.912Z,22.07
2019-02-22T10:46:42.498Z,52.03
2019-02-22T10:49:11.348Z,30.00
2019-02-22T10:51:40.159Z,21.52
2019-02-22T10:54:08.929Z,22.00
2019-02-22T10:56:39.267Z,20.70
2019-02-22T10:59:08.298Z,21.57
2019-02-22T11:01:37.256Z,21.07
2019-02-22T11:04:06.979Z,21.20
2019-02-22T11:06:35.888Z,22.07
2019-02-22T11:09:05.422Z,22.10
2019-02-22T11:11:34.175Z,22.37
2019-02-22T11:14:03.317Z,21.42
2019-02-22T11:16:32.506Z,19.95
2019-02-22T11:19:01.330Z,21.75
2019-02-22T11:21:30.254Z,20.85
2019-02-22T11:23:59.132Z,21.30
2019-02-22T11:26:27.913Z,20.75
2019-02-22T11:28:56.622Z,21.57
2019-02-22T11:31:25.396Z,21.00
2019-02-22T11:33:54.168Z,20.27
2019-02-22T11:36:23.094Z,19.70
2019-02-22T11:38:51.991Z,19.85
2019-02-22T11:41:20.802Z,18.55
2019-02-22T11:43:49.547Z,18.60
2019-02-22T11:46:18.466Z,16.77
2019-02-22T11:48:47.190Z,15.43
2019-02-22T11:51:15.990Z,15.83
2019-02-22T11:53:44.908Z,15.58
2019-02-22T11:56:13.715Z,16.10
2019-02-22T11:58:42.422Z,15.72
2019-02-22T12:01:12.429Z,16.05
2019-02-22T12:03:41.223Z,17.05
2019-02-22T12:06:10.115Z,16.12
2019-02-22T12:08:48.787Z,16.67
2019-02-22T12:11:16.383Z,13.88
2019-02-22T12:13:45.315Z,14.85
2019-02-22T12:16:14.257Z,12.45
2019-02-22T12:18:43.222Z,14.70
2019-02-22T12:21:12.073Z,14.78
2019-02-22T12:23:40.860Z,15.35
2019-02-22T12:26:09.780Z,14.73
2019-02-22T12:28:38.601Z,16.70
2019-02-22T12:31:07.475Z,17.82
2019-02-22T12:33:36.378Z,18.10
2019-02-22T12:36:05.372Z,17.75
2019-02-22T12:38:34.272Z,16.60
2019-02-22T12:41:03.035Z,18.05
2019-02-22T12:43:31.745Z,17.85
2019-02-22T12:46:00.430Z,18.02
2019-02-22T12:48:29.151Z,18.77
2019-02-22T12:50:57.949Z,17.55
2019-02-22T12:53:26.681Z,18.17
2019-02-22T12:55:55.395Z,18.05
2019-02-22T12:58:24.268Z,17.23
2019-02-22T13:00:53.139Z,18.00
2019-02-22T13:03:24.206Z,17.32
2019-02-22T13:05:52.979Z,17.73
2019-02-22T13:08:35.125Z,16.97
2019-02-22T13:11:04.232Z,18.07
2019-02-22T13:13:32.984Z,19.77
2019-02-22T13:16:01.778Z,19.27
2019-02-22T13:18:30.505Z,19.65
2019-02-22T13:20:59.367Z,20.62
2019-02-22T13:23:28.074Z,19.60
2019-02-22T13:25:56.873Z,19.67
2019-02-22T13:28:25.595Z,18.52
2019-02-22T13:30:54.466Z,19.82
2019-02-22T13:33:25.328Z,21.55
2019-02-22T13:35:54.086Z,22.62
2019-02-22T13:38:22.985Z,22.85
2019-02-22T13:40:51.755Z,21.90
2019-02-22T13:43:20.619Z,21.93
2019-02-22T13:45:50.639Z,22.60
2019-02-22T13:48:19.517Z,22.87
2019-02-22T13:50:48.240Z,24.23
2019-02-22T13:53:19.372Z,23.90
2019-02-22T13:55:48.214Z,22.55
2019-02-22T13:58:16.960Z,23.65
2019-02-22T14:00:45.709Z,23.00
2019-02-22T14:03:14.640Z,22.65
2019-02-22T14:05:43.433Z,21.77
2019-02-22T14:08:12.315Z,21.20
2019-02-22T14:10:41.152Z,21.75
2019-02-22T14:13:10.158Z,21.30
2019-02-22T14:15:38.946Z,23.60
2019-02-22T14:18:07.681Z,21.45
2019-02-22T14:20:36.516Z,20.77
2019-02-22T14:23:05.528Z,22.35
2019-02-22T14:25:34.318Z,21.70
2019-02-22T14:28:03.182Z,21.00
2019-02-22T14:30:31.996Z,20.57
2019-02-22T14:33:00.980Z,20.30
2019-02-22T14:35:29.834Z,20.72
2019-02-22T14:37:58.588Z,21.37
2019-02-22T14:40:27.363Z,21.23
2019-02-22T14:42:56.226Z,21.82
2019-02-22T14:45:25.203Z,21.37
2019-02-22T14:47:54.032Z,21.35
2019-02-22T14:50:23.537Z,20.77
2019-02-22T14:52:52.474Z,23.07
2019-02-22T14:55:21.485Z,23.10
2019-02-22T14:57:50.378Z,22.17
2019-02-22T15:00:19.132Z,23.35
2019-02-22T15:02:47.854Z,25.02
2019-02-22T15:05:16.623Z,23.07
2019-02-22T15:07:45.457Z,22.02
2019-02-22T15:10:14.289Z,22.82
2019-02-22T15:12:43.416Z,21.70
2019-02-22T15:15:12.902Z,21.52
2019-02-22T15:17:53.946Z,24.12
2019-02-22T15:20:24.784Z,21.85
2019-02-22T15:22:53.780Z,22.25
2019-02-22T15:25:23.183Z,22.60
2019-02-22T15:27:52.271Z,21.10
2019-02-22T15:30:21.555Z,22.93
2019-02-22T15:32:50.493Z,21.23
2019-02-22T15:35:19.484Z,20.35
2019-02-22T15:37:48.598Z,20.90
2019-02-22T15:40:17.719Z,21.30
2019-02-22T15:42:46.834Z,20.77
2019-02-22T15:45:17.501Z,21.15
2019-02-22T15:47:48.607Z,20.35
2019-02-22T15:50:17.301Z,22.05
2019-02-22T15:52:46.951Z,20.50
2019-02-22T15:55:16.003Z,21.07
2019-02-22T15:57:44.851Z,21.00
2019-02-22T16:00:17.268Z,20.82
2019-02-22T16:02:46.278Z,21.23
2019-02-22T16:05:19.450Z,20.57
2019-02-22T16:07:48.212Z,22.55
2019-02-22T16:10:16.939Z,21.35
2019-02-22T16:12:45.750Z,20.17
2019-02-22T16:15:14.877Z,21.62
2019-02-22T16:17:43.779Z,21.52
2019-02-22T16:20:13.447Z,21.50
2019-02-22T16:22:42.234Z,22.02
2019-02-22T16:25:19.137Z,21.20
2019-02-22T16:27:41.539Z,20.43
2019-02-22T16:30:12.112Z,21.12
2019-02-22T16:32:40.822Z,21.00
2019-02-22T16:35:09.646Z,20.50
2019-02-22T16:37:38.501Z,21.73
2019-02-22T16:40:08.562Z,20.17
2019-02-22T16:42:37.308Z,20.88
2019-02-22T16:45:06.848Z,21.50
2019-02-22T16:47:40.106Z,21.55
2019-02-22T16:50:07.378Z,21.40
2019-02-22T16:52:36.259Z,21.23
2019-02-22T16:55:05.566Z,21.62
2019-02-22T16:57:34.538Z,21.10
2019-02-22T17:00:03.389Z,21.45
2019-02-22T17:02:32.289Z,21.68
2019-02-22T17:05:01.119Z,21.23
2019-02-22T17:07:29.944Z,20.85
2019-02-22T17:09:58.675Z,20.40
2019-02-22T17:12:27.458Z,20.32
2019-02-22T17:14:56.195Z,20.25
2019-02-22T17:17:25.118Z,21.55
2019-02-22T17:19:53.857Z,19.20
2019-02-22T17:22:22.709Z,20.40
2019-02-22T17:24:51.527Z,19.52
2019-02-22T17:27:20.339Z,20.17
2019-02-22T17:29:49.245Z,20.52
2019-02-22T17:32:18.101Z,19.77
2019-02-22T17:34:46.959Z,19.12
2019-02-22T17:37:15.722Z,17.40
2019-02-22T17:39:47.906Z,17.67
2019-02-22T17:42:16.747Z,16.15
2019-02-22T17:44:45.468Z,14.90
2019-02-22T17:47:14.183Z,15.25
2019-02-22T17:49:42.977Z,15.48
2019-02-22T17:52:11.717Z,16.20
2019-02-22T17:54:40.535Z,14.73
2019-02-22T17:57:09.278Z,14.63
2019-02-22T17:59:38.002Z,14.03
2019-02-22T18:02:06.817Z,13.35
2019-02-22T18:04:35.602Z,13.32
2019-02-22T18:07:04.653Z,13.40
2019-02-22T18:09:33.374Z,13.43
2019-02-22T18:12:02.143Z,13.30
2019-02-22T18:14:30.985Z,14.38
2019-02-22T18:17:08.025Z,13.22
2019-02-22T18:19:32.016Z,13.40
2019-02-22T18:22:00.895Z,13.43
2019-02-22T18:24:29.709Z,12.30
2019-02-22T18:26:58.442Z,11.80
2019-02-22T18:29:35.126Z,12.68
2019-02-22T18:31:57.673Z,10.80
2019-02-22T18:34:26.408Z,11.97
2019-02-22T18:36:55.153Z,11.25
2019-02-22T18:39:23.881Z,13.15
2019-02-22T18:41:52.685Z,11.80
2019-02-22T18:44:21.462Z,12.63
2019-02-22T18:46:50.237Z,12.23
2019-02-22T18:49:19.036Z,17.00
2019-02-22T18:51:48.065Z,19.90
2019-02-22T18:54:16.800Z,13.53
2019-02-22T18:56:45.482Z,11.40
2019-02-22T18:59:14.208Z,10.70
2019-02-22T19:01:42.917Z,9.75
2019-02-22T19:04:11.649Z,10.32
2019-02-22T19:06:40.458Z,10.38
2019-02-22T19:09:09.275Z,9.33
2019-02-22T19:11:38.050Z,9.30
2019-02-22T19:14:06.794Z,9.53
2019-02-22T19:16:35.691Z,9.40
2019-02-22T19:19:04.618Z,9.18
2019-02-22T19:21:33.520Z,8.85
2019-02-22T19:24:02.290Z,8.83
2019-02-22T19:26:31.122Z,9.63
2019-02-22T19:28:59.930Z,9.78
2019-02-22T19:31:28.655Z,9.50
2019-02-22T19:33:57.369Z,9.93
2019-02-22T19:36:26.106Z,9.33
2019-02-22T19:38:54.858Z,9.38
2019-02-22T19:41:23.624Z,8.70
2019-02-22T19:43:52.416Z,9.60
2019-02-22T19:46:21.176Z,8.98
2019-02-22T19:48:49.905Z,10.03
2019-02-22T19:51:18.739Z,9.78
2019-02-22T19:53:47.450Z,9.63
2019-02-22T19:56:16.221Z,9.83
2019-02-22T19:58:44.950Z,10.60
2019-02-22T20:01:13.815Z,9.98
2019-02-22T20:03:42.739Z,9.75
2019-02-22T20:06:11.723Z,10.03
2019-02-22T20:08:40.452Z,9.63
2019-02-22T20:11:09.210Z,11.80
2019-02-22T20:13:37.943Z,11.18
2019-02-22T20:16:06.702Z,11.15
2019-02-22T20:18:35.534Z,12.47
2019-02-22T20:21:04.659Z,11.83
2019-02-22T20:23:33.491Z,11.08
2019-02-22T20:26:02.213Z,10.58
2019-02-22T20:28:30.976Z,10.85
2019-02-22T20:30:59.709Z,12.33
2019-02-22T20:33:30.242Z,11.48
2019-02-22T20:36:31.032Z,11.83
2019-02-22T20:39:02.828Z,11.25
2019-02-22T20:41:34.349Z,11.55
2019-02-22T20:44:07.642Z,11.53
2019-02-22T20:46:37.804Z,11.70
2019-02-22T20:49:07.292Z,11.55
2019-02-22T20:51:38.022Z,12.50
2019-02-22T20:54:06.778Z,12.70
2019-02-22T20:56:41.591Z,12.37
2019-02-22T20:59:10.584Z,11.93
2019-02-22T21:01:39.731Z,12.40
2019-02-22T21:04:10.499Z,13.28
2019-02-22T21:06:38.929Z,12.43
2019-02-22T21:09:08.231Z,12.40
2019-02-22T21:11:37.015Z,12.60
2019-02-22T21:14:05.981Z,12.95
2019-02-22T21:16:43.998Z,13.32
2019-02-22T21:19:12.869Z,13.35
2019-02-22T21:21:44.335Z,13.03
2019-02-22T21:24:16.997Z,14.45
2019-02-22T21:26:53.255Z,13.70
2019-02-22T21:29:24.023Z,14.00
2019-02-22T21:31:55.791Z,14.65
2019-02-22T21:34:24.623Z,15.08
2019-02-22T21:36:53.488Z,14.75
2019-02-22T21:39:22.469Z,16.10
2019-02-22T21:41:51.244Z,15.78
2019-02-22T21:44:20.204Z,16.97
2019-02-22T21:46:49.199Z,15.55
2019-02-22T21:49:18.030Z,15.80
2019-02-22T21:51:46.879Z,17.65
2019-02-22T21:54:15.738Z,17.20
2019-02-22T21:56:44.669Z,17.05
2019-02-22T21:59:16.335Z,17.45
2019-02-22T22:01:45.076Z,18.00
2019-02-22T22:04:13.995Z,18.00
2019-02-22T22:06:42.749Z,19.35
2019-02-22T22:09:11.535Z,17.57
2019-02-22T22:11:40.298Z,17.65
2019-02-22T22:14:09.054Z,19.82
2019-02-22T22:16:37.956Z,19.10
2019-02-22T22:19:06.762Z,18.92
2019-02-22T22:21:35.601Z,18.67
2019-02-22T22:24:06.776Z,19.05
2019-02-22T22:26:35.568Z,19.52
2019-02-22T22:29:10.601Z,19.07
2019-02-22T22:31:43.738Z,19.82
2019-02-22T22:34:12.767Z,20.82
2019-02-22T22:36:41.956Z,20.45
2019-02-22T22:39:13.811Z,20.75
2019-02-22T22:41:42.531Z,19.85
2019-02-22T22:44:11.420Z,21.65
2019-02-22T22:46:40.527Z,21.05
2019-02-22T22:49:26.479Z,21.62
2019-02-22T22:51:55.756Z,21.30
2019-02-22T22:54:24.680Z,20.50
2019-02-22T22:56:53.575Z,22.65
2019-02-22T22:59:22.376Z,19.20
2019-02-22T23:01:51.190Z,20.10
2019-02-22T23:04:20.000Z,21.35
2019-02-22T23:06:48.768Z,20.57
2019-02-22T23:09:19.161Z,20.15
2019-02-22T23:11:48.003Z,21.02
2019-02-22T23:14:16.685Z,20.27
2019-02-22T23:16:45.567Z,20.55
2019-02-22T23:19:14.326Z,20.02
2019-02-22T23:21:43.222Z,19.82
2019-02-22T23:24:17.907Z,20.10
2019-02-22T23:26:46.415Z,20.52
2019-02-22T23:29:16.850Z,21.17
2019-02-22T23:31:45.563Z,21.15
2019-02-22T23:34:14.275Z,20.52
2019-02-22T23:36:43.009Z,20.35
2019-02-22T23:39:11.789Z,18.50
2019-02-22T23:41:40.552Z,19.42
2019-02-22T23:44:09.346Z,19.00
2019-02-22T23:46:38.095Z,18.73
2019-02-22T23:49:13.277Z,18.37
2019-02-22T23:51:37.447Z,19.45
2019-02-22T23:54:06.271Z,18.87
2019-02-22T23:56:35.062Z,17.10
2019-02-22T23:59:03.814Z,17.77
